Sign-in with your pilot id or email, or register

ICAO: LOWG Name / Country: Graz Airport / Austria
Latitude: 46.9911 Longitude: 15.4396
Total Arrivals:
Deprecated: Non-static method AirportData::getarrflights() should not be called statically, assuming $this from incompatible context in /var/www/customers/vh-7192/web/home/phpvms/core/templates/airport_info.tpl on line 18
2
Total Departures:
Deprecated: Non-static method AirportData::getdeptflights() should not be called statically, assuming $this from incompatible context in /var/www/customers/vh-7192/web/home/phpvms/core/templates/airport_info.tpl on line 21
5
Latest Arrival: MTA11P (LHBP-LOWG) Tibor Berces Latest Departure: MTA924 (LOWG-ESSA) Laszlo Bartucz
Metar: LOWG 241720Z 20008KT 170V230 9999 FEW070 31/15 Q1012 NOSIG
More info

Charts for LOWG


NOTAM


Warning: file_get_contents(http://api.vateud.net/notams/LOWG.json): failed to open stream: HTTP request failed! HTTP/1.1 404 Not Found in /var/www/customers/vh-7192/web/home/phpvms/core/common/NOTAMSData.class.php on line 18

Warning: Invalid argument supplied for foreach() in /var/www/customers/vh-7192/web/home/phpvms/core/common/NOTAMSData.class.php on line 22

Graz Airport